sensor_id;sensor_type;location;lat;lon;timestamp;P1;durP1;ratioP1;P2;durP2;ratioP2
15950;SDS011;8074;48.112;11.570;2022-09-16T00:01:33;8.17;;;5.27;;
15950;SDS011;8074;48.112;11.570;2022-09-16T00:04:03;4.93;;;4.43;;
15950;SDS011;8074;48.112;11.570;2022-09-16T00:06:30;5.70;;;5.10;;
15950;SDS011;8074;48.112;11.570;2022-09-16T00:08:58;8.17;;;5.10;;
15950;SDS011;8074;48.112;11.570;2022-09-16T00:11:26;6.00;;;4.93;;
15950;SDS011;8074;48.112;11.570;2022-09-16T00:13:54;10.87;;;5.27;;
15950;SDS011;8074;48.112;11.570;2022-09-16T00:16:23;5.97;;;5.37;;
15950;SDS011;8074;48.112;11.570;2022-09-16T00:19:03;5.90;;;5.30;;
15950;SDS011;8074;48.112;11.570;2022-09-16T00:21:32;9.17;;;4.90;;
15950;SDS011;8074;48.112;11.570;2022-09-16T00:23:59;5.83;;;5.20;;
15950;SDS011;8074;48.112;11.570;2022-09-16T00:26:31;8.17;;;6.43;;
15950;SDS011;8074;48.112;11.570;2022-09-16T00:29:04;6.80;;;6.10;;
15950;SDS011;8074;48.112;11.570;2022-09-16T00:31:39;7.37;;;5.60;;
15950;SDS011;8074;48.112;11.570;2022-09-16T00:34:23;6.83;;;5.50;;
15950;SDS011;8074;48.112;11.570;2022-09-16T00:36:50;6.17;;;5.57;;
15950;SDS011;8074;48.112;11.570;2022-09-16T00:39:17;7.17;;;5.40;;
15950;SDS011;8074;48.112;11.570;2022-09-16T00:41:45;7.03;;;5.63;;
15950;SDS011;8074;48.112;11.570;2022-09-16T00:47:35;9.00;;;5.13;;
15950;SDS011;8074;48.112;11.570;2022-09-16T00:50:22;5.90;;;5.30;;
15950;SDS011;8074;48.112;11.570;2022-09-16T00:53:00;5.93;;;5.30;;
15950;SDS011;8074;48.112;11.570;2022-09-16T00:55:28;6.50;;;5.37;;
15950;SDS011;8074;48.112;11.570;2022-09-16T00:58:05;7.53;;;5.80;;
15950;SDS011;8074;48.112;11.570;2022-09-16T01:00:35;8.20;;;5.50;;
15950;SDS011;8074;48.112;11.570;2022-09-16T01:03:03;6.13;;;5.47;;
15950;SDS011;8074;48.112;11.570;2022-09-16T01:05:33;6.97;;;5.57;;
15950;SDS011;8074;48.112;11.570;2022-09-16T01:08:04;6.20;;;5.57;;
15950;SDS011;8074;48.112;11.570;2022-09-16T01:10:31;7.90;;;5.83;;
15950;SDS011;8074;48.112;11.570;2022-09-16T01:13:01;5.30;;;4.80;;
15950;SDS011;8074;48.112;11.570;2022-09-16T01:15:52;7.67;;;5.67;;
15950;SDS011;8074;48.112;11.570;2022-09-16T01:18:25;6.93;;;5.40;;
15950;SDS011;8074;48.112;11.570;2022-09-16T01:27:13;6.33;;;5.63;;
15950;SDS011;8074;48.112;11.570;2022-09-16T01:33:03;6.37;;;5.77;;
15950;SDS011;8074;48.112;11.570;2022-09-16T01:35:37;6.33;;;5.73;;
15950;SDS011;8074;48.112;11.570;2022-09-16T01:38:25;6.67;;;5.17;;
15950;SDS011;8074;48.112;11.570;2022-09-16T01:41:05;6.73;;;5.80;;
15950;SDS011;8074;48.112;11.570;2022-09-16T01:43:38;9.67;;;5.83;;
15950;SDS011;8074;48.112;11.570;2022-09-16T01:46:15;8.17;;;6.13;;
15950;SDS011;8074;48.112;11.570;2022-09-16T01:48:47;5.83;;;5.23;;
15950;SDS011;8074;48.112;11.570;2022-09-16T01:51:23;6.20;;;5.33;;
15950;SDS011;8074;48.112;11.570;2022-09-16T01:53:59;6.67;;;5.77;;
15950;SDS011;8074;48.112;11.570;2022-09-16T01:56:43;7.73;;;5.87;;
15950;SDS011;8074;48.112;11.570;2022-09-16T01:59:27;5.73;;;5.07;;
15950;SDS011;8074;48.112;11.570;2022-09-16T02:02:03;6.33;;;5.37;;
15950;SDS011;8074;48.112;11.570;2022-09-16T02:04:38;6.17;;;5.20;;
15950;SDS011;8074;48.112;11.570;2022-09-16T02:07:09;6.50;;;4.93;;
15950;SDS011;8074;48.112;11.570;2022-09-16T02:09:42;6.63;;;5.10;;
15950;SDS011;8074;48.112;11.570;2022-09-16T02:12:17;6.70;;;4.93;;
15950;SDS011;8074;48.112;11.570;2022-09-16T02:14:49;5.53;;;4.93;;
15950;SDS011;8074;48.112;11.570;2022-09-16T02:17:22;7.40;;;4.93;;
15950;SDS011;8074;48.112;11.570;2022-09-16T02:19:52;5.90;;;4.73;;
15950;SDS011;8074;48.112;11.570;2022-09-16T02:22:24;5.60;;;4.50;;
15950;SDS011;8074;48.112;11.570;2022-09-16T02:25:32;7.83;;;4.57;;
15950;SDS011;8074;48.112;11.570;2022-09-16T02:28:10;5.57;;;4.97;;
15950;SDS011;8074;48.112;11.570;2022-09-16T02:30:44;5.07;;;4.57;;
15950;SDS011;8074;48.112;11.570;2022-09-16T02:33:17;5.13;;;4.63;;
15950;SDS011;8074;48.112;11.570;2022-09-16T02:35:46;7.60;;;4.60;;
15950;SDS011;8074;48.112;11.570;2022-09-16T02:38:19;5.13;;;4.50;;
15950;SDS011;8074;48.112;11.570;2022-09-16T02:40:50;5.50;;;4.97;;
15950;SDS011;8074;48.112;11.570;2022-09-16T02:43:19;5.00;;;4.40;;
15950;SDS011;8074;48.112;11.570;2022-09-16T02:45:51;5.93;;;4.63;;
15950;SDS011;8074;48.112;11.570;2022-09-16T02:48:27;5.83;;;4.90;;
15950;SDS011;8074;48.112;11.570;2022-09-16T02:51:03;6.30;;;4.77;;
15950;SDS011;8074;48.112;11.570;2022-09-16T02:53:42;5.27;;;4.77;;
15950;SDS011;8074;48.112;11.570;2022-09-16T02:56:18;5.90;;;4.60;;
15950;SDS011;8074;48.112;11.570;2022-09-16T02:58:49;5.17;;;4.60;;
15950;SDS011;8074;48.112;11.570;2022-09-16T03:01:16;6.90;;;5.00;;
15950;SDS011;8074;48.112;11.570;2022-09-16T03:03:48;5.20;;;4.70;;
15950;SDS011;8074;48.112;11.570;2022-09-16T03:06:16;5.77;;;4.83;;
15950;SDS011;8074;48.112;11.570;2022-09-16T03:08:46;6.53;;;4.63;;
15950;SDS011;8074;48.112;11.570;2022-09-16T03:11:18;8.07;;;4.67;;
15950;SDS011;8074;48.112;11.570;2022-09-16T03:14:31;7.23;;;5.33;;
15950;SDS011;8074;48.112;11.570;2022-09-16T03:17:13;5.17;;;4.67;;
15950;SDS011;8074;48.112;11.570;2022-09-16T03:26:24;5.70;;;5.10;;
15950;SDS011;8074;48.112;11.570;2022-09-16T03:29:21;5.43;;;4.93;;
15950;SDS011;8074;48.112;11.570;2022-09-16T03:32:14;5.43;;;4.93;;
15950;SDS011;8074;48.112;11.570;2022-09-16T03:35:05;6.27;;;5.40;;
15950;SDS011;8074;48.112;11.570;2022-09-16T03:37:42;7.43;;;4.93;;
15950;SDS011;8074;48.112;11.570;2022-09-16T03:40:45;5.97;;;4.83;;
15950;SDS011;8074;48.112;11.570;2022-09-16T03:43:15;6.97;;;5.40;;
15950;SDS011;8074;48.112;11.570;2022-09-16T03:45:42;5.93;;;5.30;;
15950;SDS011;8074;48.112;11.570;2022-09-16T03:48:10;7.23;;;5.23;;
15950;SDS011;8074;48.112;11.570;2022-09-16T03:50:46;5.77;;;5.07;;
15950;SDS011;8074;48.112;11.570;2022-09-16T03:53:25;6.90;;;5.47;;
15950;SDS011;8074;48.112;11.570;2022-09-16T03:56:22;7.70;;;5.50;;
15950;SDS011;8074;48.112;11.570;2022-09-16T03:58:50;6.07;;;5.43;;
15950;SDS011;8074;48.112;11.570;2022-09-16T04:01:17;8.83;;;5.47;;
15950;SDS011;8074;48.112;11.570;2022-09-16T04:03:44;7.00;;;6.23;;
15950;SDS011;8074;48.112;11.570;2022-09-16T04:06:11;7.00;;;6.27;;
15950;SDS011;8074;48.112;11.570;2022-09-16T04:08:39;6.87;;;6.17;;
15950;SDS011;8074;48.112;11.570;2022-09-16T04:16:52;7.33;;;5.70;;
15950;SDS011;8074;48.112;11.570;2022-09-16T04:19:24;8.30;;;6.10;;
15950;SDS011;8074;48.112;11.570;2022-09-16T04:21:52;7.47;;;6.17;;
15950;SDS011;8074;48.112;11.570;2022-09-16T04:24:19;6.43;;;5.70;;
15950;SDS011;8074;48.112;11.570;2022-09-16T04:26:46;8.97;;;6.50;;
15950;SDS011;8074;48.112;11.570;2022-09-16T04:29:20;8.37;;;5.90;;
15950;SDS011;8074;48.112;11.570;2022-09-16T04:32:17;8.23;;;5.83;;
15950;SDS011;8074;48.112;11.570;2022-09-16T04:37:54;7.67;;;5.70;;
15950;SDS011;8074;48.112;11.570;2022-09-16T04:40:21;7.00;;;6.10;;
15950;SDS011;8074;48.112;11.570;2022-09-16T04:42:48;6.63;;;5.53;;
15950;SDS011;8074;48.112;11.570;2022-09-16T04:45:16;7.07;;;6.10;;
15950;SDS011;8074;48.112;11.570;2022-09-16T04:48:22;9.00;;;6.30;;
15950;SDS011;8074;48.112;11.570;2022-09-16T04:51:18;8.43;;;6.23;;
15950;SDS011;8074;48.112;11.570;2022-09-16T04:54:01;7.57;;;6.43;;
15950;SDS011;8074;48.112;11.570;2022-09-16T04:56:29;7.40;;;6.53;;
15950;SDS011;8074;48.112;11.570;2022-09-16T04:58:58;7.37;;;6.57;;
15950;SDS011;8074;48.112;11.570;2022-09-16T05:05:43;7.87;;;6.67;;
15950;SDS011;8074;48.112;11.570;2022-09-16T05:08:14;8.37;;;6.77;;
15950;SDS011;8074;48.112;11.570;2022-09-16T05:10:42;8.33;;;6.90;;
15950;SDS011;8074;48.112;11.570;2022-09-16T05:13:09;10.47;;;7.07;;
15950;SDS011;8074;48.112;11.570;2022-09-16T05:18:11;9.23;;;6.83;;
15950;SDS011;8074;48.112;11.570;2022-09-16T05:23:36;8.53;;;6.63;;
15950;SDS011;8074;48.112;11.570;2022-09-16T05:26:07;7.97;;;6.83;;
15950;SDS011;8074;48.112;11.570;2022-09-16T05:28:35;8.07;;;6.70;;
15950;SDS011;8074;48.112;11.570;2022-09-16T05:31:17;9.80;;;7.00;;
15950;SDS011;8074;48.112;11.570;2022-09-16T05:33:53;10.80;;;6.70;;
15950;SDS011;8074;48.112;11.570;2022-09-16T05:36:41;8.73;;;7.60;;
15950;SDS011;8074;48.112;11.570;2022-09-16T05:45:25;10.10;;;7.60;;
15950;SDS011;8074;48.112;11.570;2022-09-16T05:48:50;9.70;;;7.50;;
15950;SDS011;8074;48.112;11.570;2022-09-16T05:51:21;12.17;;;8.13;;
15950;SDS011;8074;48.112;11.570;2022-09-16T05:53:52;8.33;;;7.43;;
15950;SDS011;8074;48.112;11.570;2022-09-16T06:10:14;10.30;;;7.70;;
15950;SDS011;8074;48.112;11.570;2022-09-16T06:12:41;10.80;;;7.30;;
15950;SDS011;8074;48.112;11.570;2022-09-16T06:15:09;8.60;;;6.77;;
15950;SDS011;8074;48.112;11.570;2022-09-16T06:17:37;13.43;;;7.40;;
15950;SDS011;8074;48.112;11.570;2022-09-16T06:20:04;8.73;;;6.87;;
15950;SDS011;8074;48.112;11.570;2022-09-16T06:22:38;10.40;;;7.23;;
15950;SDS011;8074;48.112;11.570;2022-09-16T06:25:05;10.93;;;8.00;;
15950;SDS011;8074;48.112;11.570;2022-09-16T06:27:34;10.57;;;7.73;;
15950;SDS011;8074;48.112;11.570;2022-09-16T06:30:02;8.87;;;7.30;;
15950;SDS011;8074;48.112;11.570;2022-09-16T06:32:29;10.03;;;6.77;;
15950;SDS011;8074;48.112;11.570;2022-09-16T06:34:57;8.30;;;7.20;;
15950;SDS011;8074;48.112;11.570;2022-09-16T06:37:24;9.90;;;7.30;;
15950;SDS011;8074;48.112;11.570;2022-09-16T06:39:51;12.70;;;7.57;;
15950;SDS011;8074;48.112;11.570;2022-09-16T06:42:18;9.33;;;6.90;;
15950;SDS011;8074;48.112;11.570;2022-09-16T06:44:48;8.87;;;7.60;;
15950;SDS011;8074;48.112;11.570;2022-09-16T06:47:15;10.77;;;7.80;;
15950;SDS011;8074;48.112;11.570;2022-09-16T06:49:42;9.80;;;6.97;;
15950;SDS011;8074;48.112;11.570;2022-09-16T06:52:08;11.00;;;7.90;;
15950;SDS011;8074;48.112;11.570;2022-09-16T06:54:35;15.33;;;9.57;;
15950;SDS011;8074;48.112;11.570;2022-09-16T06:57:03;10.80;;;8.57;;
15950;SDS011;8074;48.112;11.570;2022-09-16T06:59:30;11.87;;;8.27;;
15950;SDS011;8074;48.112;11.570;2022-09-16T07:01:58;9.83;;;7.53;;
15950;SDS011;8074;48.112;11.570;2022-09-16T07:04:27;8.57;;;7.13;;
15950;SDS011;8074;48.112;11.570;2022-09-16T07:06:54;8.73;;;7.40;;
15950;SDS011;8074;48.112;11.570;2022-09-16T07:09:22;10.63;;;8.27;;
15950;SDS011;8074;48.112;11.570;2022-09-16T07:11:49;11.17;;;7.80;;
15950;SDS011;8074;48.112;11.570;2022-09-16T07:16:42;8.60;;;7.70;;
15950;SDS011;8074;48.112;11.570;2022-09-16T07:19:10;12.70;;;9.73;;
15950;SDS011;8074;48.112;11.570;2022-09-16T07:21:37;15.57;;;9.97;;
15950;SDS011;8074;48.112;11.570;2022-09-16T07:24:05;11.27;;;8.40;;
15950;SDS011;8074;48.112;11.570;2022-09-16T07:26:35;13.23;;;8.37;;
15950;SDS011;8074;48.112;11.570;2022-09-16T07:29:03;13.13;;;9.20;;
15950;SDS011;8074;48.112;11.570;2022-09-16T07:31:32;11.90;;;9.13;;
15950;SDS011;8074;48.112;11.570;2022-09-16T07:34:01;8.70;;;7.87;;
15950;SDS011;8074;48.112;11.570;2022-09-16T07:36:31;8.83;;;8.03;;
15950;SDS011;8074;48.112;11.570;2022-09-16T07:38:59;12.00;;;8.13;;
15950;SDS011;8074;48.112;11.570;2022-09-16T07:41:27;10.00;;;8.87;;
15950;SDS011;8074;48.112;11.570;2022-09-16T07:43:55;12.40;;;8.50;;
15950;SDS011;8074;48.112;11.570;2022-09-16T07:46:24;10.77;;;8.40;;
15950;SDS011;8074;48.112;11.570;2022-09-16T07:48:52;11.30;;;8.60;;
15950;SDS011;8074;48.112;11.570;2022-09-16T07:51:20;11.23;;;8.97;;
15950;SDS011;8074;48.112;11.570;2022-09-16T07:53:53;9.53;;;8.33;;
15950;SDS011;8074;48.112;11.570;2022-09-16T07:56:21;12.47;;;9.10;;
15950;SDS011;8074;48.112;11.570;2022-09-16T07:58:50;9.23;;;7.97;;
15950;SDS011;8074;48.112;11.570;2022-09-16T08:01:18;10.53;;;8.90;;
15950;SDS011;8074;48.112;11.570;2022-09-16T08:03:45;11.30;;;8.77;;
15950;SDS011;8074;48.112;11.570;2022-09-16T08:06:14;10.53;;;9.07;;
15950;SDS011;8074;48.112;11.570;2022-09-16T08:08:43;9.50;;;7.83;;
15950;SDS011;8074;48.112;11.570;2022-09-16T08:11:12;9.80;;;8.33;;
15950;SDS011;8074;48.112;11.570;2022-09-16T08:13:40;11.53;;;7.47;;
15950;SDS011;8074;48.112;11.570;2022-09-16T08:16:10;10.10;;;7.73;;
15950;SDS011;8074;48.112;11.570;2022-09-16T08:18:38;9.90;;;7.87;;
15950;SDS011;8074;48.112;11.570;2022-09-16T08:21:05;9.67;;;8.10;;
15950;SDS011;8074;48.112;11.570;2022-09-16T08:23:33;12.40;;;9.17;;
15950;SDS011;8074;48.112;11.570;2022-09-16T08:26:01;10.23;;;8.50;;
15950;SDS011;8074;48.112;11.570;2022-09-16T08:28:30;10.13;;;8.27;;
15950;SDS011;8074;48.112;11.570;2022-09-16T08:30:57;10.60;;;7.77;;
15950;SDS011;8074;48.112;11.570;2022-09-16T08:33:24;10.03;;;8.17;;
15950;SDS011;8074;48.112;11.570;2022-09-16T08:35:58;11.30;;;7.87;;
15950;SDS011;8074;48.112;11.570;2022-09-16T08:38:28;9.40;;;7.67;;
15950;SDS011;8074;48.112;11.570;2022-09-16T08:41:00;8.77;;;7.87;;
15950;SDS011;8074;48.112;11.570;2022-09-16T08:43:45;12.40;;;10.70;;
15950;SDS011;8074;48.112;11.570;2022-09-16T08:46:17;10.30;;;8.30;;
15950;SDS011;8074;48.112;11.570;2022-09-16T08:48:48;13.93;;;8.83;;
15950;SDS011;8074;48.112;11.570;2022-09-16T08:51:21;9.33;;;8.40;;
15950;SDS011;8074;48.112;11.570;2022-09-16T08:53:49;10.37;;;7.67;;
15950;SDS011;8074;48.112;11.570;2022-09-16T08:56:21;8.60;;;7.67;;
15950;SDS011;8074;48.112;11.570;2022-09-16T08:58:53;12.83;;;7.67;;
15950;SDS011;8074;48.112;11.570;2022-09-16T09:01:25;11.50;;;7.73;;
15950;SDS011;8074;48.112;11.570;2022-09-16T09:04:10;13.70;;;7.97;;
15950;SDS011;8074;48.112;11.570;2022-09-16T09:06:43;9.07;;;7.37;;
15950;SDS011;8074;48.112;11.570;2022-09-16T09:09:24;10.40;;;7.80;;
15950;SDS011;8074;48.112;11.570;2022-09-16T09:12:02;10.80;;;7.60;;
15950;SDS011;8074;48.112;11.570;2022-09-16T09:14:40;12.73;;;7.80;;
15950;SDS011;8074;48.112;11.570;2022-09-16T09:17:21;8.57;;;7.67;;
15950;SDS011;8074;48.112;11.570;2022-09-16T09:20:02;12.03;;;7.70;;
15950;SDS011;8074;48.112;11.570;2022-09-16T09:22:42;11.30;;;7.33;;
15950;SDS011;8074;48.112;11.570;2022-09-16T09:25:30;10.87;;;7.13;;
15950;SDS011;8074;48.112;11.570;2022-09-16T09:28:14;9.40;;;8.10;;
15950;SDS011;8074;48.112;11.570;2022-09-16T09:30:58;10.17;;;7.97;;
15950;SDS011;8074;48.112;11.570;2022-09-16T09:33:34;11.03;;;8.20;;
15950;SDS011;8074;48.112;11.570;2022-09-16T09:36:16;10.33;;;7.60;;
15950;SDS011;8074;48.112;11.570;2022-09-16T09:39:26;10.33;;;8.23;;
15950;SDS011;8074;48.112;11.570;2022-09-16T09:42:08;9.93;;;8.93;;
15950;SDS011;8074;48.112;11.570;2022-09-16T09:44:44;13.87;;;9.77;;
15950;SDS011;8074;48.112;11.570;2022-09-16T09:47:22;11.43;;;9.20;;
15950;SDS011;8074;48.112;11.570;2022-09-16T09:49:53;12.70;;;9.10;;
15950;SDS011;8074;48.112;11.570;2022-09-16T09:52:24;14.43;;;9.03;;
15950;SDS011;8074;48.112;11.570;2022-09-16T09:54:59;12.30;;;9.73;;
15950;SDS011;8074;48.112;11.570;2022-09-16T09:57:41;10.20;;;8.90;;
15950;SDS011;8074;48.112;11.570;2022-09-16T10:00:26;13.03;;;9.33;;
15950;SDS011;8074;48.112;11.570;2022-09-16T10:03:03;11.83;;;9.43;;
15950;SDS011;8074;48.112;11.570;2022-09-16T10:05:32;15.27;;;10.30;;
15950;SDS011;8074;48.112;11.570;2022-09-16T10:08:15;11.87;;;9.77;;
15950;SDS011;8074;48.112;11.570;2022-09-16T10:10:51;12.93;;;9.90;;
15950;SDS011;8074;48.112;11.570;2022-09-16T10:13:20;10.07;;;9.03;;
15950;SDS011;8074;48.112;11.570;2022-09-16T10:16:07;12.30;;;9.63;;
15950;SDS011;8074;48.112;11.570;2022-09-16T10:19:28;15.77;;;10.33;;
15950;SDS011;8074;48.112;11.570;2022-09-16T10:22:38;11.53;;;10.23;;
15950;SDS011;8074;48.112;11.570;2022-09-16T10:25:21;13.47;;;10.57;;
15950;SDS011;8074;48.112;11.570;2022-09-16T10:27:54;12.03;;;10.73;;
15950;SDS011;8074;48.112;11.570;2022-09-16T10:30:31;13.80;;;10.40;;
15950;SDS011;8074;48.112;11.570;2022-09-16T10:33:13;13.30;;;11.07;;
15950;SDS011;8074;48.112;11.570;2022-09-16T10:35:54;12.00;;;10.80;;
15950;SDS011;8074;48.112;11.570;2022-09-16T10:38:26;14.80;;;11.27;;
15950;SDS011;8074;48.112;11.570;2022-09-16T10:41:26;14.83;;;13.17;;
15950;SDS011;8074;48.112;11.570;2022-09-16T10:44:17;13.77;;;10.77;;
15950;SDS011;8074;48.112;11.570;2022-09-16T10:47:15;16.13;;;11.73;;
15950;SDS011;8074;48.112;11.570;2022-09-16T10:50:14;16.00;;;10.60;;
15950;SDS011;8074;48.112;11.570;2022-09-16T10:52:48;12.87;;;11.07;;
15950;SDS011;8074;48.112;11.570;2022-09-16T10:55:24;12.57;;;11.07;;
15950;SDS011;8074;48.112;11.570;2022-09-16T10:58:17;14.30;;;11.37;;
15950;SDS011;8074;48.112;11.570;2022-09-16T11:00:46;14.53;;;10.23;;
15950;SDS011;8074;48.112;11.570;2022-09-16T11:03:27;15.97;;;10.97;;
15950;SDS011;8074;48.112;11.570;2022-09-16T11:06:21;14.43;;;11.20;;
15950;SDS011;8074;48.112;11.570;2022-09-16T11:09:04;14.27;;;11.50;;
15950;SDS011;8074;48.112;11.570;2022-09-16T11:15:43;9.83;;;8.60;;
15950;SDS011;8074;48.112;11.570;2022-09-16T11:18:30;9.30;;;7.60;;
15950;SDS011;8074;48.112;11.570;2022-09-16T11:21:07;8.90;;;8.00;;
15950;SDS011;8074;48.112;11.570;2022-09-16T11:23:47;10.07;;;7.40;;
15950;SDS011;8074;48.112;11.570;2022-09-16T11:26:28;10.97;;;7.10;;
15950;SDS011;8074;48.112;11.570;2022-09-16T11:29:19;9.83;;;6.20;;
15950;SDS011;8074;48.112;11.570;2022-09-16T11:32:16;12.27;;;9.37;;
15950;SDS011;8074;48.112;11.570;2022-09-16T11:35:21;10.53;;;7.23;;
15950;SDS011;8074;48.112;11.570;2022-09-16T11:38:08;9.50;;;8.03;;
15950;SDS011;8074;48.112;11.570;2022-09-16T11:41:06;11.40;;;7.57;;
15950;SDS011;8074;48.112;11.570;2022-09-16T11:46:59;10.17;;;7.97;;
15950;SDS011;8074;48.112;11.570;2022-09-16T11:49:55;11.43;;;8.27;;
15950;SDS011;8074;48.112;11.570;2022-09-16T11:52:53;8.47;;;6.73;;
15950;SDS011;8074;48.112;11.570;2022-09-16T11:55:39;7.87;;;5.97;;
15950;SDS011;8074;48.112;11.570;2022-09-16T11:58:20;7.80;;;5.90;;
15950;SDS011;8074;48.112;11.570;2022-09-16T12:01:01;9.20;;;6.27;;
15950;SDS011;8074;48.112;11.570;2022-09-16T12:03:36;7.57;;;6.27;;
15950;SDS011;8074;48.112;11.570;2022-09-16T12:06:09;11.40;;;7.40;;
15950;SDS011;8074;48.112;11.570;2022-09-16T12:08:43;9.20;;;7.00;;
15950;SDS011;8074;48.112;11.570;2022-09-16T12:11:41;10.70;;;6.80;;
15950;SDS011;8074;48.112;11.570;2022-09-16T12:14:28;8.70;;;6.63;;
15950;SDS011;8074;48.112;11.570;2022-09-16T12:17:02;9.10;;;6.27;;
15950;SDS011;8074;48.112;11.570;2022-09-16T12:19:34;9.07;;;6.53;;
15950;SDS011;8074;48.112;11.570;2022-09-16T12:22:07;8.37;;;5.90;;
15950;SDS011;8074;48.112;11.570;2022-09-16T12:24:41;9.80;;;5.87;;
15950;SDS011;8074;48.112;11.570;2022-09-16T12:27:13;8.30;;;5.23;;
15950;SDS011;8074;48.112;11.570;2022-09-16T12:29:52;6.27;;;5.67;;
15950;SDS011;8074;48.112;11.570;2022-09-16T12:32:27;8.80;;;5.27;;
15950;SDS011;8074;48.112;11.570;2022-09-16T12:35:03;8.30;;;5.53;;
15950;SDS011;8074;48.112;11.570;2022-09-16T12:40:33;5.97;;;5.10;;
15950;SDS011;8074;48.112;11.570;2022-09-16T12:46:56;8.37;;;5.10;;
15950;SDS011;8074;48.112;11.570;2022-09-16T12:49:44;8.87;;;5.50;;
15950;SDS011;8074;48.112;11.570;2022-09-16T12:52:43;7.40;;;5.20;;
15950;SDS011;8074;48.112;11.570;2022-09-16T12:55:40;7.30;;;5.30;;
15950;SDS011;8074;48.112;11.570;2022-09-16T12:58:26;6.40;;;4.90;;
15950;SDS011;8074;48.112;11.570;2022-09-16T13:01:24;6.33;;;5.00;;
15950;SDS011;8074;48.112;11.570;2022-09-16T13:04:12;6.33;;;5.30;;
15950;SDS011;8074;48.112;11.570;2022-09-16T13:09:28;4.17;;;3.40;;
15950;SDS011;8074;48.112;11.570;2022-09-16T13:12:04;4.53;;;4.10;;
15950;SDS011;8074;48.112;11.570;2022-09-16T13:14:33;4.50;;;4.10;;
15950;SDS011;8074;48.112;11.570;2022-09-16T13:17:26;5.33;;;4.30;;
15950;SDS011;8074;48.112;11.570;2022-09-16T13:19:55;4.30;;;3.90;;
15950;SDS011;8074;48.112;11.570;2022-09-16T13:22:33;6.33;;;4.23;;
15950;SDS011;8074;48.112;11.570;2022-09-16T13:25:21;4.57;;;3.93;;
15950;SDS011;8074;48.112;11.570;2022-09-16T13:27:54;4.30;;;3.90;;
15950;SDS011;8074;48.112;11.570;2022-09-16T13:30:28;6.83;;;4.27;;
15950;SDS011;8074;48.112;11.570;2022-09-16T13:35:49;4.10;;;3.70;;
15950;SDS011;8074;48.112;11.570;2022-09-16T13:38:35;4.90;;;3.43;;
15950;SDS011;8074;48.112;11.570;2022-09-16T13:41:11;3.87;;;3.30;;
15950;SDS011;8074;48.112;11.570;2022-09-16T13:46:46;7.43;;;3.93;;
15950;SDS011;8074;48.112;11.570;2022-09-16T13:49:18;5.70;;;3.60;;
15950;SDS011;8074;48.112;11.570;2022-09-16T13:51:49;3.73;;;3.40;;
15950;SDS011;8074;48.112;11.570;2022-09-16T13:54:20;5.13;;;3.47;;
15950;SDS011;8074;48.112;11.570;2022-09-16T14:10:46;5.63;;;4.20;;
15950;SDS011;8074;48.112;11.570;2022-09-16T14:13:36;6.63;;;3.90;;
15950;SDS011;8074;48.112;11.570;2022-09-16T14:16:09;5.57;;;4.10;;
15950;SDS011;8074;48.112;11.570;2022-09-16T14:18:43;5.37;;;3.10;;
15950;SDS011;8074;48.112;11.570;2022-09-16T14:21:19;3.90;;;3.50;;
15950;SDS011;8074;48.112;11.570;2022-09-16T14:23:49;4.73;;;3.60;;
15950;SDS011;8074;48.112;11.570;2022-09-16T14:26:39;8.23;;;4.23;;
15950;SDS011;8074;48.112;11.570;2022-09-16T14:29:15;6.13;;;4.17;;
15950;SDS011;8074;48.112;11.570;2022-09-16T14:31:42;5.67;;;4.00;;
15950;SDS011;8074;48.112;11.570;2022-09-16T14:34:11;5.60;;;4.33;;
15950;SDS011;8074;48.112;11.570;2022-09-16T14:36:44;8.87;;;4.90;;
15950;SDS011;8074;48.112;11.570;2022-09-16T14:39:13;6.60;;;3.90;;
15950;SDS011;8074;48.112;11.570;2022-09-16T14:41:45;4.90;;;4.13;;
15950;SDS011;8074;48.112;11.570;2022-09-16T14:44:19;4.67;;;4.17;;
15950;SDS011;8074;48.112;11.570;2022-09-16T14:46:52;4.93;;;4.47;;
15950;SDS011;8074;48.112;11.570;2022-09-16T14:49:38;8.17;;;4.30;;
15950;SDS011;8074;48.112;11.570;2022-09-16T14:52:16;4.43;;;4.03;;
15950;SDS011;8074;48.112;11.570;2022-09-16T14:54:47;4.30;;;3.90;;
15950;SDS011;8074;48.112;11.570;2022-09-16T14:58:09;9.27;;;4.13;;
15950;SDS011;8074;48.112;11.570;2022-09-16T15:00:39;4.00;;;3.47;;
15950;SDS011;8074;48.112;11.570;2022-09-16T15:03:22;6.20;;;4.50;;
15950;SDS011;8074;48.112;11.570;2022-09-16T15:05:54;6.83;;;4.23;;
15950;SDS011;8074;48.112;11.570;2022-09-16T15:08:26;7.33;;;4.60;;
15950;SDS011;8074;48.112;11.570;2022-09-16T15:10:58;8.20;;;5.70;;
15950;SDS011;8074;48.112;11.570;2022-09-16T15:13:34;6.73;;;4.53;;
15950;SDS011;8074;48.112;11.570;2022-09-16T15:16:20;5.40;;;3.90;;
15950;SDS011;8074;48.112;11.570;2022-09-16T15:18:53;5.80;;;3.47;;
15950;SDS011;8074;48.112;11.570;2022-09-16T15:21:24;9.23;;;5.63;;
15950;SDS011;8074;48.112;11.570;2022-09-16T15:24:16;4.17;;;3.73;;
15950;SDS011;8074;48.112;11.570;2022-09-16T15:26:47;6.33;;;4.30;;
15950;SDS011;8074;48.112;11.570;2022-09-16T15:29:27;7.73;;;5.07;;
15950;SDS011;8074;48.112;11.570;2022-09-16T15:32:16;4.57;;;4.13;;
15950;SDS011;8074;48.112;11.570;2022-09-16T15:35:00;7.50;;;4.40;;
15950;SDS011;8074;48.112;11.570;2022-09-16T15:37:51;7.97;;;5.07;;
15950;SDS011;8074;48.112;11.570;2022-09-16T15:40:20;5.70;;;4.57;;
15950;SDS011;8074;48.112;11.570;2022-09-16T15:43:09;7.03;;;4.20;;
15950;SDS011;8074;48.112;11.570;2022-09-16T15:45:45;7.50;;;5.17;;
15950;SDS011;8074;48.112;11.570;2022-09-16T15:48:24;10.83;;;5.63;;
15950;SDS011;8074;48.112;11.570;2022-09-16T15:51:18;6.50;;;4.30;;
15950;SDS011;8074;48.112;11.570;2022-09-16T15:53:49;5.43;;;4.80;;
15950;SDS011;8074;48.112;11.570;2022-09-16T15:56:20;6.03;;;4.33;;
15950;SDS011;8074;48.112;11.570;2022-09-16T15:59:18;5.90;;;5.30;;
15950;SDS011;8074;48.112;11.570;2022-09-16T16:02:17;7.57;;;5.27;;
15950;SDS011;8074;48.112;11.570;2022-09-16T16:05:08;8.17;;;6.43;;
15950;SDS011;8074;48.112;11.570;2022-09-16T16:07:44;6.17;;;5.33;;
15950;SDS011;8074;48.112;11.570;2022-09-16T16:10:14;6.83;;;5.30;;
15950;SDS011;8074;48.112;11.570;2022-09-16T16:12:46;6.93;;;4.97;;
15950;SDS011;8074;48.112;11.570;2022-09-16T16:15:49;5.20;;;4.70;;
15950;SDS011;8074;48.112;11.570;2022-09-16T16:18:21;6.17;;;5.37;;
15950;SDS011;8074;48.112;11.570;2022-09-16T16:20:50;6.77;;;4.77;;
15950;SDS011;8074;48.112;11.570;2022-09-16T16:23:17;6.67;;;4.73;;
15950;SDS011;8074;48.112;11.570;2022-09-16T16:25:44;5.80;;;4.93;;
15950;SDS011;8074;48.112;11.570;2022-09-16T16:28:12;7.13;;;5.33;;
15950;SDS011;8074;48.112;11.570;2022-09-16T16:30:39;11.63;;;7.60;;
15950;SDS011;8074;48.112;11.570;2022-09-16T16:33:19;7.20;;;5.83;;
15950;SDS011;8074;48.112;11.570;2022-09-16T16:35:59;5.87;;;4.57;;
15950;SDS011;8074;48.112;11.570;2022-09-16T16:38:29;6.57;;;5.40;;
15950;SDS011;8074;48.112;11.570;2022-09-16T16:41:06;6.13;;;4.63;;
15950;SDS011;8074;48.112;11.570;2022-09-16T16:43:36;7.03;;;4.80;;
15950;SDS011;8074;48.112;11.570;2022-09-16T16:46:21;6.57;;;5.07;;
15950;SDS011;8074;48.112;11.570;2022-09-16T16:48:55;5.33;;;4.83;;
15950;SDS011;8074;48.112;11.570;2022-09-16T16:51:23;4.47;;;4.00;;
15950;SDS011;8074;48.112;11.570;2022-09-16T16:54:10;7.60;;;4.83;;
15950;SDS011;8074;48.112;11.570;2022-09-16T16:56:58;5.40;;;4.57;;
15950;SDS011;8074;48.112;11.570;2022-09-16T16:59:48;6.03;;;4.30;;
15950;SDS011;8074;48.112;11.570;2022-09-16T17:02:36;4.83;;;4.33;;
15950;SDS011;8074;48.112;11.570;2022-09-16T17:05:26;5.47;;;4.40;;
15950;SDS011;8074;48.112;11.570;2022-09-16T17:08:11;7.73;;;4.83;;
15950;SDS011;8074;48.112;11.570;2022-09-16T17:10:38;7.37;;;4.90;;
15950;SDS011;8074;48.112;11.570;2022-09-16T17:13:12;8.10;;;4.80;;
15950;SDS011;8074;48.112;11.570;2022-09-16T17:15:40;5.97;;;4.83;;